Terminal Aerodrome Forecast
Issued by NWS

Home | Current Version | Previous Version | Graphics & Text | Print | Product List | Glossary On
Versions: 1 2 3 4 5 6 7 8 9 10 11 12 13 14 15 16 17 18 19 20 21 22 23 24
000
FTUS43 KTOP 011000 AAB
TAFMHK
TAF AMD
KMHK 011005Z 0110/0206 01006KT 2SM -RASN BR OVC005
     FM011100 34013G22KT 3SM -SN BR OVC005
     FM011500 35024G32KT 4SM -SN BR OVC008
     FM012100 35022G30KT P6SM OVC014
     FM020100 35013G21KT P6SM OVC018=

USA.gov is the U.S. government's official web portal to all federal, state and local government web resources and services.